Time;durP1;ratioP1;P1;durP2;ratioP2;P2;SDS_P1;SDS_P2;PMS_P1;PMS_P2;Temp;Humidity;BMP_temperature;BMP_pressure;BME280_temperature;BME280_humidity;BME280_pressure;Samples;Min_cycle;Max_cycle;Signal;HPM_P1;HPM_P2
2022/09/20 00:01:51;;;;;;;4.70;3.50;;;;;;;;;;107602;1275;34084;-31
2022/09/20 00:04:20;;;;;;;5.10;3.10;;;;;;;;;;107538;1274;34112;-31
2022/09/20 00:06:49;;;;;;;4.80;3.10;;;;;;;;;;107584;1274;33450;-31
2022/09/20 00:09:18;;;;;;;4.80;3.50;;;;;;;;;;107575;1274;33456;-31
2022/09/20 00:11:47;;;;;;;5.10;3.50;;;;;;;;;;107599;1274;33931;-29
2022/09/20 00:14:16;;;;;;;5.10;3.20;;;;;;;;;;107554;1274;33475;-30
2022/09/20 00:16:45;;;;;;;4.80;3.50;;;;;;;;;;107573;1274;32354;-31
2022/09/20 00:19:18;;;;;;;5.10;3.20;;;;;;;;;;107565;1274;33538;-31
2022/09/20 00:21:47;;;;;;;5.30;3.50;;;;;;;;;;107578;1274;33648;-31
2022/09/20 00:24:16;;;;;;;4.60;3.10;;;;;;;;;;107582;1274;33502;-31
2022/09/20 00:26:46;;;;;;;5.40;3.50;;;;;;;;;;107536;1274;32182;-31
2022/09/20 00:29:15;;;;;;;5.60;3.60;;;;;;;;;;107589;1274;33411;-31
2022/09/20 00:31:45;;;;;;;5.80;3.80;;;;;;;;;;107582;1275;32388;-31
2022/09/20 00:37:01;;;;;;;5.80;4.70;;;;;;;;;;107542;1275;41414;-31
2022/09/20 00:39:31;;;;;;;6.30;5.10;;;;;;;;;;107599;1274;32472;-31
2022/09/20 00:42:00;;;;;;;6.50;4.90;;;;;;;;;;107549;1275;33545;-31
2022/09/20 00:44:55;;;;;;;7.10;5.40;;;;;;;;;;107564;1274;34294;-31
2022/09/20 00:47:28;;;;;;;7.40;5.40;;;;;;;;;;107545;1274;42084;-31
2022/09/20 00:49:59;;;;;;;7.50;5.60;;;;;;;;;;107567;1274;33416;-31
2022/09/20 00:52:29;;;;;;;7.10;5.20;;;;;;;;;;107605;1274;33394;-31
2022/09/20 00:54:58;;;;;;;6.60;5.40;;;;;;;;;;107592;1274;32378;-32
2022/09/20 00:57:33;;;;;;;6.90;5.20;;;;;;;;;;107569;1275;33973;-31
2022/09/20 01:00:07;;;;;;;7.00;5.50;;;;;;;;;;107542;1274;33643;-31
2022/09/20 01:02:38;;;;;;;8.30;6.20;;;;;;;;;;107612;1274;34414;-31
2022/09/20 01:05:09;;;;;;;7.80;6.90;;;;;;;;;;107573;1275;32379;-31
2022/09/20 01:07:38;;;;;;;8.10;6.70;;;;;;;;;;107542;1274;33442;-31
2022/09/20 01:10:09;;;;;;;7.20;6.50;;;;;;;;;;107566;1275;34567;-31
2022/09/20 01:12:39;;;;;;;7.60;6.20;;;;;;;;;;107559;1274;33869;-31
2022/09/20 01:15:10;;;;;;;7.10;6.40;;;;;;;;;;107604;1274;32218;-31
2022/09/20 01:17:45;;;;;;;6.70;6.00;;;;;;;;;;107572;1274;33822;-32
2022/09/20 01:20:17;;;;;;;6.80;6.10;;;;;;;;;;107593;1275;33454;-31
2022/09/20 01:22:53;;;;;;;6.80;5.90;;;;;;;;;;107584;1274;32422;-32
2022/09/20 01:25:28;;;;;;;6.70;5.50;;;;;;;;;;107601;1274;32898;-32
2022/09/20 01:27:57;;;;;;;6.60;5.60;;;;;;;;;;107559;1274;33959;-32
2022/09/20 01:30:31;;;;;;;6.60;5.50;;;;;;;;;;107589;1274;33378;-31
2022/09/20 01:33:07;;;;;;;6.10;5.50;;;;;;;;;;107593;1274;33546;-31
2022/09/20 01:35:38;;;;;;;7.00;5.20;;;;;;;;;;107584;1274;33934;-31
2022/09/20 01:38:14;;;;;;;6.30;5.20;;;;;;;;;;107554;1275;32103;-31
2022/09/20 01:40:47;;;;;;;6.90;5.40;;;;;;;;;;107547;1274;32419;-31
2022/09/20 01:43:21;;;;;;;6.50;5.40;;;;;;;;;;107581;1274;33526;-31
2022/09/20 01:45:50;;;;;;;6.80;4.90;;;;;;;;;;107610;1275;33977;-31
2022/09/20 01:48:25;;;;;;;7.80;5.40;;;;;;;;;;107540;1274;33834;-31
2022/09/20 01:51:10;;;;;;;5.70;4.70;;;;;;;;;;107562;1275;33916;-31
2022/09/20 01:53:56;;;;;;;6.00;4.60;;;;;;;;;;107561;1274;33959;-31
2022/09/20 01:56:38;;;;;;;5.90;4.60;;;;;;;;;;107546;1274;32303;-31
2022/09/20 01:59:12;;;;;;;6.10;4.50;;;;;;;;;;107532;1274;41252;-31
2022/09/20 02:01:39;;;;;;;;;;;;;;;;;;107566;1274;34369;-31
2022/09/20 02:04:23;;;;;;;6.30;4.50;;;;;;;;;;107558;1274;33020;-31
2022/09/20 02:07:01;;;;;;;5.60;4.20;;;;;;;;;;107503;1274;33804;-31
2022/09/20 02:09:38;;;;;;;5.90;4.30;;;;;;;;;;107553;1275;41009;-31
2022/09/20 02:12:18;;;;;;;6.10;4.50;;;;;;;;;;107620;1274;34233;-31
2022/09/20 02:14:52;;;;;;;6.10;4.20;;;;;;;;;;107603;1275;33832;-32
2022/09/20 02:17:27;;;;;;;6.90;4.90;;;;;;;;;;107578;1274;32225;-32
2022/09/20 02:20:15;;;;;;;6.40;4.40;;;;;;;;;;107569;1274;33397;-32
2022/09/20 02:23:01;;;;;;;5.80;4.00;;;;;;;;;;107578;1275;33441;-32
2022/09/20 02:25:37;;;;;;;5.70;4.40;;;;;;;;;;107552;1275;33984;-32
2022/09/20 02:28:13;;;;;;;5.20;4.20;;;;;;;;;;107536;1274;33877;-31
2022/09/20 02:30:47;;;;;;;5.60;4.10;;;;;;;;;;107606;1274;32454;-31
2022/09/20 02:33:40;;;;;;;5.70;4.10;;;;;;;;;;107593;1274;34454;-31
2022/09/20 02:36:17;;;;;;;6.40;4.10;;;;;;;;;;107595;1274;34372;-31
2022/09/20 02:38:54;;;;;;;5.60;3.90;;;;;;;;;;107591;1274;33454;-31
2022/09/20 02:41:34;;;;;;;5.40;4.00;;;;;;;;;;107586;1274;33930;-31
2022/09/20 02:44:07;;;;;;;6.50;4.20;;;;;;;;;;107584;1274;33307;-31
2022/09/20 02:46:41;;;;;;;5.60;3.70;;;;;;;;;;107578;1274;33516;-31
2022/09/20 02:49:13;;;;;;;5.30;4.20;;;;;;;;;;107583;1274;32107;-31
2022/09/20 02:51:44;;;;;;;5.00;3.60;;;;;;;;;;107611;1274;34003;-31
2022/09/20 02:54:21;;;;;;;5.80;4.10;;;;;;;;;;107598;1274;33962;-31
2022/09/20 02:56:58;;;;;;;5.20;4.20;;;;;;;;;;107592;1274;34069;-31
2022/09/20 02:59:32;;;;;;;5.50;3.80;;;;;;;;;;107552;1274;33445;-31
2022/09/20 03:02:06;;;;;;;5.80;3.90;;;;;;;;;;107590;1274;34100;-32
2022/09/20 03:04:44;;;;;;;5.40;3.90;;;;;;;;;;107559;1274;34359;-32
2022/09/20 03:07:18;;;;;;;5.50;4.20;;;;;;;;;;107586;1274;33423;-32
2022/09/20 03:09:51;;;;;;;5.60;3.80;;;;;;;;;;107565;1274;33998;-32
2022/09/20 03:12:26;;;;;;;5.30;4.00;;;;;;;;;;107592;1274;33942;-32
2022/09/20 03:15:00;;;;;;;5.30;3.50;;;;;;;;;;107578;1274;33178;-32
2022/09/20 03:17:32;;;;;;;4.90;3.60;;;;;;;;;;107589;1274;33482;-32
2022/09/20 03:20:07;;;;;;;5.90;3.80;;;;;;;;;;107518;1275;32895;-31
2022/09/20 03:22:49;;;;;;;5.30;3.50;;;;;;;;;;107584;1274;33557;-31
2022/09/20 03:25:29;;;;;;;4.90;3.70;;;;;;;;;;107585;1274;33395;-31
2022/09/20 03:28:08;;;;;;;5.50;3.60;;;;;;;;;;107593;1274;33991;-31
2022/09/20 03:30:43;;;;;;;5.30;3.60;;;;;;;;;;107546;1274;33410;-32
2022/09/20 03:33:16;;;;;;;5.00;3.50;;;;;;;;;;107555;1274;34045;-32
2022/09/20 03:35:57;;;;;;;5.70;3.70;;;;;;;;;;107548;1274;34010;-32
2022/09/20 03:38:34;;;;;;;5.70;3.80;;;;;;;;;;107573;1275;33902;-32
2022/09/20 03:41:14;;;;;;;5.30;3.60;;;;;;;;;;107546;1275;33440;-32
2022/09/20 03:43:54;;;;;;;5.80;3.60;;;;;;;;;;107574;1274;33705;-31
2022/09/20 03:46:26;;;;;;;5.20;3.70;;;;;;;;;;107552;1274;33419;-31
2022/09/20 03:49:12;;;;;;;5.60;3.90;;;;;;;;;;107589;1274;33811;-31
2022/09/20 03:51:45;;;;;;;5.20;3.80;;;;;;;;;;107562;1274;43589;-31
2022/09/20 03:54:33;;;;;;;4.80;3.50;;;;;;;;;;107566;1274;33491;-31
2022/09/20 03:57:20;;;;;;;5.50;3.40;;;;;;;;;;107600;1274;33436;-31
2022/09/20 04:00:00;;;;;;;5.20;3.50;;;;;;;;;;107558;1274;33917;-32
2022/09/20 04:02:38;;;;;;;5.30;3.70;;;;;;;;;;107589;1274;34225;-32
2022/09/20 04:05:11;;;;;;;4.90;3.40;;;;;;;;;;107572;1274;33615;-32
2022/09/20 04:07:48;;;;;;;5.40;3.60;;;;;;;;;;107545;1275;33452;-32
2022/09/20 04:10:27;;;;;;;4.80;3.20;;;;;;;;;;107549;1274;34429;-32
2022/09/20 04:13:17;;;;;;;5.30;3.50;;;;;;;;;;107571;1274;32493;-32
2022/09/20 04:15:54;;;;;;;5.60;3.60;;;;;;;;;;107594;1274;33423;-32
2022/09/20 04:18:28;;;;;;;5.00;3.50;;;;;;;;;;107580;1274;33542;-32
2022/09/20 04:21:02;;;;;;;4.90;3.70;;;;;;;;;;107539;1274;33843;-32
2022/09/20 04:23:36;;;;;;;5.00;3.30;;;;;;;;;;107568;1274;31464;-32
2022/09/20 04:26:03;;;;;;;;;;;;;;;;;;107598;1274;32502;-32
2022/09/20 04:28:35;;;;;;;4.70;3.10;;;;;;;;;;107575;1274;33572;-32
2022/09/20 04:31:10;;;;;;;4.70;2.80;;;;;;;;;;107548;1274;33830;-32
2022/09/20 04:33:42;;;;;;;4.80;3.50;;;;;;;;;;107577;1274;32342;-32
2022/09/20 04:36:29;;;;;;;5.00;3.30;;;;;;;;;;107593;1274;33921;-32
2022/09/20 04:39:09;;;;;;;4.70;3.20;;;;;;;;;;107589;1274;32375;-32
2022/09/20 04:41:54;;;;;;;4.70;3.40;;;;;;;;;;107572;1274;33412;-32
2022/09/20 04:44:36;;;;;;;4.70;3.10;;;;;;;;;;107581;1274;32355;-32
2022/09/20 04:47:26;;;;;;;4.40;2.90;;;;;;;;;;107575;1274;33427;-32
2022/09/20 04:50:10;;;;;;;4.80;3.10;;;;;;;;;;107593;1274;32386;-32
2022/09/20 04:52:50;;;;;;;5.20;3.30;;;;;;;;;;107615;1274;33542;-31
2022/09/20 04:55:46;;;;;;;5.40;3.30;;;;;;;;;;107581;1274;33646;-31
2022/09/20 04:58:28;;;;;;;4.50;2.80;;;;;;;;;;107571;1274;33860;-31
2022/09/20 05:01:15;;;;;;;4.50;3.00;;;;;;;;;;107526;1274;32176;-31
2022/09/20 05:03:58;;;;;;;4.50;2.90;;;;;;;;;;107563;1274;32892;-31
2022/09/20 05:06:26;;;;;;;;;;;;;;;;;;107612;1274;33430;-31
2022/09/20 05:09:12;;;;;;;4.50;3.00;;;;;;;;;;107568;1274;33592;-31
2022/09/20 05:11:58;;;;;;;4.80;2.80;;;;;;;;;;107545;1274;33406;-31
2022/09/20 05:14:51;;;;;;;5.10;3.10;;;;;;;;;;107598;1274;33474;-32
2022/09/20 05:17:31;;;;;;;5.00;3.10;;;;;;;;;;107583;1274;32094;-32
2022/09/20 05:20:12;;;;;;;5.50;2.90;;;;;;;;;;107604;1274;32370;-32
2022/09/20 05:22:49;;;;;;;5.00;3.00;;;;;;;;;;107537;1274;33425;-32
2022/09/20 05:25:37;;;;;;;5.10;3.00;;;;;;;;;;107593;1274;33885;-32
2022/09/20 05:28:09;;;;;;;4.60;2.70;;;;;;;;;;107620;1274;34348;-32
2022/09/20 05:30:39;;;;;;;4.60;2.60;;;;;;;;;;107602;1274;33953;-32
2022/09/20 05:33:17;;;;;;;4.80;2.90;;;;;;;;;;107552;1274;34035;-32
2022/09/20 05:35:53;;;;;;;4.90;2.80;;;;;;;;;;107588;1274;33997;-32
2022/09/20 05:38:26;;;;;;;5.70;2.80;;;;;;;;;;107567;1274;32202;-32
2022/09/20 05:41:03;;;;;;;4.90;2.90;;;;;;;;;;107584;1274;32067;-31
2022/09/20 05:43:34;;;;;;;4.80;2.80;;;;;;;;;;107589;1274;33983;-31
2022/09/20 05:46:14;;;;;;;4.50;2.50;;;;;;;;;;107595;1274;33948;-31
2022/09/20 05:48:52;;;;;;;4.70;2.90;;;;;;;;;;107602;1274;31263;-31
2022/09/20 05:51:27;;;;;;;4.80;2.90;;;;;;;;;;107602;1274;33408;-31
2022/09/20 05:54:07;;;;;;;5.50;2.50;;;;;;;;;;107597;1274;45919;-31
2022/09/20 05:56:41;;;;;;;5.00;2.80;;;;;;;;;;107608;1274;32238;-32
2022/09/20 05:59:19;;;;;;;5.60;3.00;;;;;;;;;;107628;1274;33475;-31
2022/09/20 06:02:01;;;;;;;5.50;3.20;;;;;;;;;;107580;1274;34214;-31
2022/09/20 06:04:35;;;;;;;5.90;2.90;;;;;;;;;;107573;1274;47532;-31
2022/09/20 06:07:08;;;;;;;6.60;3.40;;;;;;;;;;107598;1274;34042;-31
2022/09/20 06:09:43;;;;;;;7.00;3.70;;;;;;;;;;107587;1274;33517;-31
2022/09/20 06:12:20;;;;;;;5.30;3.50;;;;;;;;;;107542;1274;34187;-31
2022/09/20 06:14:58;;;;;;;5.60;3.10;;;;;;;;;;107567;1273;46804;-31
2022/09/20 06:17:32;;;;;;;8.60;3.30;;;;;;;;;;107603;1274;31786;-31
2022/09/20 06:20:09;;;;;;;6.50;3.30;;;;;;;;;;107606;1274;33341;-31
2022/09/20 06:22:41;;;;;;;6.80;3.20;;;;;;;;;;107552;1273;33930;-32
2022/09/20 06:25:18;;;;;;;6.60;3.20;;;;;;;;;;107485;1276;32238;-32
2022/09/20 06:27:50;;;;;;;6.20;3.40;;;;;;;;;;107612;1274;33694;-32
2022/09/20 06:30:25;;;;;;;5.20;3.20;;;;;;;;;;107622;1274;32385;-32
2022/09/20 06:32:57;;;;;;;7.50;3.60;;;;;;;;;;107569;1274;32442;-32
2022/09/20 06:35:29;;;;;;;6.00;3.30;;;;;;;;;;107607;1274;33379;-32
2022/09/20 06:43:43;;;;;;;5.80;3.20;;;;;;;;;;107548;1274;32474;-30
2022/09/20 06:46:14;;;;;;;5.90;3.20;;;;;;;;;;107625;1274;33881;-31
2022/09/20 06:48:43;;;;;;;7.20;3.50;;;;;;;;;;107598;1274;33505;-32
2022/09/20 06:51:12;;;;;;;6.40;3.20;;;;;;;;;;107585;1274;33401;-32
2022/09/20 06:53:42;;;;;;;6.40;3.10;;;;;;;;;;107554;1274;33653;-31
2022/09/20 06:56:15;;;;;;;5.90;3.10;;;;;;;;;;107706;1274;33592;-33
2022/09/20 06:58:44;;;;;;;5.20;3.30;;;;;;;;;;107789;1274;33923;-33
2022/09/20 07:01:14;;;;;;;6.10;3.20;;;;;;;;;;107791;1274;33533;-33
2022/09/20 07:03:43;;;;;;;5.90;3.00;;;;;;;;;;107756;1274;33395;-33
2022/09/20 07:06:18;;;;;;;6.80;3.50;;;;;;;;;;107860;1274;32507;-33
2022/09/20 07:08:50;;;;;;;5.40;3.30;;;;;;;;;;107813;1274;33930;-33
2022/09/20 07:11:21;;;;;;;5.40;3.20;;;;;;;;;;107791;1274;32652;-33
2022/09/20 07:13:52;;;;;;;6.40;3.50;;;;;;;;;;107739;1274;33961;-33
2022/09/20 07:16:22;;;;;;;5.90;3.60;;;;;;;;;;107771;1274;32490;-33
2022/09/20 07:18:52;;;;;;;6.50;3.80;;;;;;;;;;107767;1274;31799;-33
2022/09/20 07:21:21;;;;;;;7.60;3.30;;;;;;;;;;107803;1274;33975;-32
2022/09/20 07:23:52;;;;;;;8.00;3.70;;;;;;;;;;107724;1274;34099;-33
2022/09/20 07:26:24;;;;;;;6.20;3.20;;;;;;;;;;107741;1274;34407;-33
2022/09/20 07:28:54;;;;;;;6.80;3.90;;;;;;;;;;107816;1274;32198;-33
2022/09/20 07:31:27;;;;;;;8.10;3.80;;;;;;;;;;107783;1274;34016;-33
2022/09/20 07:33:56;;;;;;;6.40;3.50;;;;;;;;;;107741;1274;34294;-33
2022/09/20 07:36:26;;;;;;;6.50;4.10;;;;;;;;;;107822;1274;46305;-33
2022/09/20 07:38:56;;;;;;;5.80;3.60;;;;;;;;;;107824;1274;33971;-33
2022/09/20 07:41:31;;;;;;;7.40;4.00;;;;;;;;;;107808;1274;34246;-33
2022/09/20 07:44:19;;;;;;;7.40;3.60;;;;;;;;;;107796;1274;33528;-33
2022/09/20 07:46:49;;;;;;;6.60;4.00;;;;;;;;;;107728;1274;46527;-33
2022/09/20 07:49:19;;;;;;;6.80;4.20;;;;;;;;;;107803;1274;33844;-33
2022/09/20 07:51:48;;;;;;;7.00;3.90;;;;;;;;;;107753;1274;33450;-33
2022/09/20 07:54:18;;;;;;;7.30;4.10;;;;;;;;;;107827;1274;34022;-33
2022/09/20 07:56:47;;;;;;;7.80;3.70;;;;;;;;;;107694;1274;31996;-33
2022/09/20 07:59:17;;;;;;;6.20;3.80;;;;;;;;;;107855;1271;33481;-33
2022/09/20 08:01:46;;;;;;;7.80;3.60;;;;;;;;;;107860;1273;34528;-33
2022/09/20 08:04:15;;;;;;;7.20;4.00;;;;;;;;;;107921;1271;34406;-32
2022/09/20 08:06:45;;;;;;;7.20;3.80;;;;;;;;;;107956;1271;33832;-33
2022/09/20 08:09:14;;;;;;;5.70;3.60;;;;;;;;;;107847;1271;33936;-33
2022/09/20 08:11:44;;;;;;;7.20;3.80;;;;;;;;;;107931;1271;33577;-33
2022/09/20 08:14:15;;;;;;;9.20;3.80;;;;;;;;;;107970;1271;33815;-33
2022/09/20 08:16:47;;;;;;;7.80;3.70;;;;;;;;;;107977;1271;33394;-33
2022/09/20 08:19:17;;;;;;;8.00;4.20;;;;;;;;;;107850;1271;33972;-33
2022/09/20 08:21:46;;;;;;;7.40;4.20;;;;;;;;;;107793;1271;31952;-33
2022/09/20 08:24:16;;;;;;;7.10;4.20;;;;;;;;;;107873;1271;33437;-33
2022/09/20 08:26:48;;;;;;;8.40;3.90;;;;;;;;;;107803;1270;33821;-33
2022/09/20 08:29:17;;;;;;;7.50;4.10;;;;;;;;;;107799;1270;32513;-32
2022/09/20 08:31:46;;;;;;;7.80;4.00;;;;;;;;;;107709;1273;33645;-31
2022/09/20 08:34:17;;;;;;;6.40;4.30;;;;;;;;;;107823;1271;33892;-31
2022/09/20 08:36:48;;;;;;;7.00;4.10;;;;;;;;;;107813;1270;33408;-31
2022/09/20 08:39:18;;;;;;;6.60;3.80;;;;;;;;;;107815;1271;34192;-31
2022/09/20 08:41:50;;;;;;;10.20;4.00;;;;;;;;;;107712;1271;33481;-32
2022/09/20 08:44:24;;;;;;;8.00;3.80;;;;;;;;;;107764;1270;33650;-33
2022/09/20 08:46:57;;;;;;;5.10;3.60;;;;;;;;;;107762;1269;33852;-32
2022/09/20 08:49:25;;;;;;;;;;;;;;;;;;107785;1270;32176;-32
2022/09/20 08:51:56;;;;;;;7.40;4.00;;;;;;;;;;107786;1271;31637;-32
2022/09/20 08:54:26;;;;;;;6.40;3.60;;;;;;;;;;107790;1271;32399;-32
2022/09/20 08:56:55;;;;;;;6.00;4.00;;;;;;;;;;107724;1271;34267;-33
2022/09/20 08:59:24;;;;;;;8.10;3.90;;;;;;;;;;107790;1271;33947;-32
2022/09/20 09:01:54;;;;;;;7.60;3.60;;;;;;;;;;107781;1271;33487;-32
2022/09/20 09:04:25;;;;;;;7.20;4.10;;;;;;;;;;107776;1271;33901;-32
2022/09/20 09:06:54;;;;;;;5.50;3.80;;;;;;;;;;107746;1271;33411;-32
2022/09/20 09:09:25;;;;;;;6.70;4.10;;;;;;;;;;107797;1271;33927;-32
2022/09/20 09:11:55;;;;;;;5.30;3.50;;;;;;;;;;107782;1271;33914;-32
2022/09/20 09:17:13;;;;;;;6.40;3.70;;;;;;;;;;107608;1271;33842;-32
2022/09/20 09:19:47;;;;;;;5.00;3.50;;;;;;;;;;107283;1271;57420;-32
2022/09/20 09:22:21;;;;;;;6.40;3.60;;;;;;;;;;107713;1271;33888;-32
2022/09/20 09:25:03;;;;;;;6.30;4.20;;;;;;;;;;107725;1271;33555;-33
2022/09/20 09:27:33;;;;;;;6.90;3.70;;;;;;;;;;107624;1271;33563;-32
2022/09/20 09:30:19;;;;;;;5.70;3.40;;;;;;;;;;107694;1271;33443;-32
2022/09/20 09:32:48;;;;;;;6.00;3.70;;;;;;;;;;107720;1271;33391;-32
2022/09/20 09:35:23;;;;;;;7.60;3.80;;;;;;;;;;107681;1271;70796;-32
2022/09/20 09:37:58;;;;;;;5.30;3.60;;;;;;;;;;107637;1271;33679;-32
2022/09/20 09:40:28;;;;;;;6.30;3.30;;;;;;;;;;107668;1271;33397;-33
2022/09/20 09:42:59;;;;;;;5.10;3.40;;;;;;;;;;107679;1271;31197;-33
2022/09/20 09:45:30;;;;;;;6.10;3.80;;;;;;;;;;107710;1270;33945;-33
2022/09/20 09:48:00;;;;;;;6.00;3.40;;;;;;;;;;107733;1271;34001;-33
2022/09/20 09:50:30;;;;;;;5.40;3.70;;;;;;;;;;107687;1271;33455;-32
2022/09/20 09:53:06;;;;;;;5.40;3.40;;;;;;;;;;107670;1271;33399;-32
2022/09/20 09:55:39;;;;;;;5.30;3.60;;;;;;;;;;107680;1271;33349;-31
2022/09/20 09:58:14;;;;;;;6.50;3.70;;;;;;;;;;107652;1273;33507;-32
2022/09/20 10:00:45;;;;;;;6.20;3.60;;;;;;;;;;107697;1272;33356;-32
2022/09/20 10:03:20;;;;;;;5.30;3.80;;;;;;;;;;107647;1273;34001;-32
2022/09/20 10:05:55;;;;;;;5.60;3.70;;;;;;;;;;107634;1273;33395;-32
2022/09/20 10:08:28;;;;;;;5.50;3.40;;;;;;;;;;107614;1273;33886;-32
2022/09/20 10:11:01;;;;;;;5.80;3.70;;;;;;;;;;107663;1273;34411;-32
2022/09/20 10:13:36;;;;;;;4.90;3.60;;;;;;;;;;107542;1273;32372;-32
2022/09/20 10:16:09;;;;;;;4.90;3.50;;;;;;;;;;107495;1273;33137;-32
2022/09/20 10:18:44;;;;;;;6.00;3.70;;;;;;;;;;107505;1273;32400;-32
2022/09/20 10:21:27;;;;;;;5.30;3.60;;;;;;;;;;107536;1273;34534;-32
2022/09/20 10:24:01;;;;;;;4.50;3.30;;;;;;;;;;107545;1273;34297;-32
2022/09/20 10:26:42;;;;;;;4.80;3.50;;;;;;;;;;107472;1273;33439;-32
2022/09/20 10:29:17;;;;;;;5.90;3.30;;;;;;;;;;107603;1273;33490;-32
2022/09/20 10:31:55;;;;;;;4.90;3.30;;;;;;;;;;107664;1273;31865;-32
2022/09/20 10:34:35;;;;;;;5.60;3.70;;;;;;;;;;107631;1273;34318;-32
2022/09/20 10:37:09;;;;;;;4.90;3.60;;;;;;;;;;107633;1273;33902;-32
2022/09/20 10:39:40;;;;;;;4.80;3.50;;;;;;;;;;108378;1273;34377;-32
2022/09/20 10:45:12;;;;;;;6.40;3.50;;;;;;;;;;107641;1273;34284;-32
2022/09/20 10:47:47;;;;;;;5.70;3.50;;;;;;;;;;107633;1273;33892;-31
2022/09/20 10:50:28;;;;;;;6.20;3.70;;;;;;;;;;107652;1273;33440;-31
2022/09/20 10:53:09;;;;;;;4.70;3.40;;;;;;;;;;107645;1273;32293;-31
2022/09/20 10:55:44;;;;;;;5.20;3.50;;;;;;;;;;107607;1271;33847;-32
2022/09/20 10:58:26;;;;;;;5.90;3.90;;;;;;;;;;107634;1271;33895;-32
2022/09/20 11:01:01;;;;;;;6.90;4.70;;;;;;;;;;107645;1271;47695;-32
2022/09/20 11:03:38;;;;;;;8.10;5.80;;;;;;;;;;107675;1271;33451;-32
2022/09/20 11:06:17;;;;;;;8.00;5.90;;;;;;;;;;107691;1271;32716;-32
2022/09/20 11:08:49;;;;;;;6.20;4.30;;;;;;;;;;107629;1271;33634;-33
2022/09/20 11:11:22;;;;;;;6.50;5.30;;;;;;;;;;107364;1271;43488;-33
2022/09/20 11:13:57;;;;;;;5.90;4.80;;;;;;;;;;107686;1271;33904;-32
2022/09/20 11:16:28;;;;;;;6.80;6.10;;;;;;;;;;107699;1271;33644;-32
2022/09/20 11:19:00;;;;;;;6.00;4.70;;;;;;;;;;107661;1271;33513;-32
2022/09/20 11:21:31;;;;;;;6.20;5.00;;;;;;;;;;107709;1270;33477;-33
2022/09/20 11:24:02;;;;;;;5.90;4.30;;;;;;;;;;107738;1270;34260;-33
2022/09/20 11:26:38;;;;;;;6.70;4.90;;;;;;;;;;107707;1270;34126;-33
2022/09/20 11:29:13;;;;;;;6.10;5.10;;;;;;;;;;107634;1271;33433;-33
2022/09/20 11:31:44;;;;;;;5.70;5.10;;;;;;;;;;107677;1271;34479;-31
2022/09/20 11:34:16;;;;;;;7.00;4.80;;;;;;;;;;107695;1272;32197;-32
2022/09/20 11:36:51;;;;;;;5.90;4.80;;;;;;;;;;107685;1271;32203;-32
2022/09/20 11:39:22;;;;;;;5.60;4.40;;;;;;;;;;107665;1271;33996;-33
2022/09/20 11:41:54;;;;;;;5.60;4.20;;;;;;;;;;107652;1273;33959;-33
2022/09/20 11:44:23;;;;;;;5.30;4.00;;;;;;;;;;107519;1272;33484;-33
2022/09/20 11:46:55;;;;;;;6.20;4.10;;;;;;;;;;107547;1273;33973;-34
2022/09/20 11:49:26;;;;;;;6.30;4.00;;;;;;;;;;107472;1272;32903;-34
2022/09/20 11:52:05;;;;;;;7.40;4.30;;;;;;;;;;107521;1274;45272;-34
2022/09/20 11:54:53;;;;;;;6.20;3.90;;;;;;;;;;107509;1273;33834;-34
2022/09/20 11:57:23;;;;;;;6.30;3.70;;;;;;;;;;107559;1271;33499;-34
2022/09/20 11:59:54;;;;;;;5.00;3.70;;;;;;;;;;107659;1273;33185;-34
2022/09/20 12:02:30;;;;;;;5.60;4.00;;;;;;;;;;107702;1273;34209;-34
2022/09/20 12:05:00;;;;;;;6.50;3.60;;;;;;;;;;107845;1274;32379;-33
2022/09/20 12:07:33;;;;;;;5.30;3.70;;;;;;;;;;107640;1271;33986;-33
2022/09/20 12:10:06;;;;;;;4.90;3.70;;;;;;;;;;107646;1273;34398;-33
2022/09/20 12:12:40;;;;;;;5.00;3.60;;;;;;;;;;107599;1273;34177;-33
2022/09/20 12:15:22;;;;;;;5.60;3.70;;;;;;;;;;107674;1272;33233;-33
2022/09/20 12:18:18;;;;;;;6.20;3.90;;;;;;;;;;107731;1273;33495;-33
2022/09/20 12:21:04;;;;;;;5.10;4.00;;;;;;;;;;107524;1273;32312;-33
2022/09/20 12:23:51;;;;;;;5.10;3.50;;;;;;;;;;107702;1273;33481;-33
2022/09/20 12:26:34;;;;;;;6.10;3.80;;;;;;;;;;107769;1273;34018;-33
2022/09/20 12:29:24;;;;;;;4.70;3.50;;;;;;;;;;107706;1273;33776;-33
2022/09/20 12:31:54;;;;;;;5.70;3.40;;;;;;;;;;107705;1272;33824;-33
2022/09/20 12:34:34;;;;;;;5.70;3.50;;;;;;;;;;107740;1273;33491;-33
2022/09/20 12:37:22;;;;;;;5.10;3.40;;;;;;;;;;107752;1273;32555;-33
2022/09/20 12:39:53;;;;;;;4.60;3.30;;;;;;;;;;107727;1272;33575;-33
2022/09/20 12:42:27;;;;;;;4.90;3.70;;;;;;;;;;107676;1273;32366;-33
2022/09/20 12:45:00;;;;;;;5.30;3.80;;;;;;;;;;107694;1273;34091;-33
2022/09/20 12:47:30;;;;;;;4.20;3.10;;;;;;;;;;107697;1273;32048;-33
2022/09/20 12:52:56;;;;;;;4.80;3.10;;;;;;;;;;107886;1273;33979;-34
2022/09/20 12:55:45;;;;;;;4.80;3.30;;;;;;;;;;107958;1273;33879;-34
2022/09/20 12:58:21;;;;;;;4.90;3.20;;;;;;;;;;107786;1273;33417;-33
2022/09/20 13:00:51;;;;;;;5.10;3.30;;;;;;;;;;107689;1272;32434;-33
2022/09/20 13:03:26;;;;;;;4.90;3.20;;;;;;;;;;107689;1273;41718;-33
2022/09/20 13:06:10;;;;;;;4.50;3.10;;;;;;;;;;107692;1273;33541;-33
2022/09/20 13:08:42;;;;;;;4.60;3.20;;;;;;;;;;107701;1273;33932;-33
2022/09/20 13:11:16;;;;;;;4.50;3.10;;;;;;;;;;107666;1273;32087;-33
2022/09/20 13:13:49;;;;;;;4.70;2.80;;;;;;;;;;107667;1273;34777;-33
2022/09/20 13:16:21;;;;;;;5.00;3.30;;;;;;;;;;107670;1272;33217;-33
2022/09/20 13:18:52;;;;;;;5.40;3.30;;;;;;;;;;107728;1273;34613;-32
2022/09/20 13:21:22;;;;;;;4.30;3.00;;;;;;;;;;107677;1273;34680;-32
2022/09/20 13:23:53;;;;;;;4.90;3.30;;;;;;;;;;107706;1273;33531;-32
2022/09/20 13:26:26;;;;;;;4.50;3.20;;;;;;;;;;107729;1273;33433;-32
2022/09/20 13:28:57;;;;;;;4.80;3.10;;;;;;;;;;107730;1273;34009;-32
2022/09/20 13:31:28;;;;;;;5.20;3.20;;;;;;;;;;107679;1273;33584;-32
2022/09/20 13:34:12;;;;;;;6.00;3.50;;;;;;;;;;107683;1273;41701;-32
2022/09/20 13:36:42;;;;;;;6.20;3.40;;;;;;;;;;107745;1273;32517;-32
2022/09/20 13:39:23;;;;;;;4.60;3.40;;;;;;;;;;107695;1273;33512;-32
2022/09/20 13:41:52;;;;;;;5.20;3.40;;;;;;;;;;107651;1273;33450;-32
2022/09/20 13:44:24;;;;;;;6.30;3.80;;;;;;;;;;107654;1273;33446;-32
2022/09/20 13:46:54;;;;;;;5.90;3.60;;;;;;;;;;107661;1272;32833;-32
2022/09/20 13:49:24;;;;;;;4.50;3.30;;;;;;;;;;107663;1273;33818;-32
2022/09/20 13:51:53;;;;;;;6.10;3.20;;;;;;;;;;107624;1273;33844;-32
2022/09/20 13:54:26;;;;;;;5.40;3.20;;;;;;;;;;107637;1271;33398;-32
2022/09/20 13:56:56;;;;;;;5.00;3.40;;;;;;;;;;107697;1271;34471;-32
2022/09/20 13:59:26;;;;;;;6.00;3.50;;;;;;;;;;107651;1272;33909;-32
2022/09/20 14:01:56;;;;;;;5.00;3.30;;;;;;;;;;107661;1271;32192;-32
2022/09/20 14:04:25;;;;;;;5.00;3.30;;;;;;;;;;107693;1271;40894;-33
2022/09/20 14:06:56;;;;;;;4.60;3.30;;;;;;;;;;107624;1271;33512;-33
2022/09/20 14:09:30;;;;;;;5.30;3.00;;;;;;;;;;107670;1271;32267;-32
2022/09/20 14:12:00;;;;;;;5.30;3.10;;;;;;;;;;107682;1272;34054;-34
2022/09/20 14:14:29;;;;;;;5.60;3.40;;;;;;;;;;107618;1271;34320;-33
2022/09/20 14:17:00;;;;;;;4.40;3.10;;;;;;;;;;107694;1272;32592;-34
2022/09/20 14:19:35;;;;;;;4.50;3.30;;;;;;;;;;107656;1271;33500;-33
2022/09/20 14:22:05;;;;;;;4.30;3.00;;;;;;;;;;107639;1272;36168;-34
2022/09/20 14:24:36;;;;;;;5.90;3.30;;;;;;;;;;107596;1271;33395;-33
2022/09/20 14:27:16;;;;;;;4.90;3.10;;;;;;;;;;107626;1273;34747;-33
2022/09/20 14:29:46;;;;;;;5.50;3.30;;;;;;;;;;107667;1271;33501;-33
2022/09/20 14:32:31;;;;;;;5.10;3.00;;;;;;;;;;107664;1273;34007;-33
2022/09/20 14:35:02;;;;;;;4.60;3.00;;;;;;;;;;107624;1271;34303;-33
2022/09/20 14:37:32;;;;;;;5.40;3.10;;;;;;;;;;107656;1273;32187;-33
2022/09/20 14:40:05;;;;;;;5.40;3.10;;;;;;;;;;107644;1271;32681;-33
2022/09/20 14:42:33;;;;;;;;;;;;;;;;;;107703;1271;34023;-33
2022/09/20 14:45:04;;;;;;;4.40;2.70;;;;;;;;;;107628;1272;31750;-33
2022/09/20 14:47:38;;;;;;;4.70;2.90;;;;;;;;;;107632;1273;33518;-33
2022/09/20 14:50:23;;;;;;;6.10;3.30;;;;;;;;;;107686;1271;32344;-33
2022/09/20 14:53:05;;;;;;;4.60;3.10;;;;;;;;;;107701;1271;31249;-33
2022/09/20 14:55:36;;;;;;;5.30;3.10;;;;;;;;;;107584;1273;41630;-33
2022/09/20 14:58:08;;;;;;;5.10;3.00;;;;;;;;;;107657;1272;33998;-33
2022/09/20 15:00:52;;;;;;;4.60;3.00;;;;;;;;;;107721;1272;33436;-33
2022/09/20 15:03:24;;;;;;;5.90;2.90;;;;;;;;;;107638;1272;34240;-33
2022/09/20 15:05:54;;;;;;;5.20;3.30;;;;;;;;;;107599;1273;42161;-33
2022/09/20 15:08:24;;;;;;;4.30;3.00;;;;;;;;;;107640;1272;34064;-33
2022/09/20 15:10:53;;;;;;;5.20;3.00;;;;;;;;;;107659;1272;33420;-32
2022/09/20 15:13:22;;;;;;;5.60;3.30;;;;;;;;;;107647;1273;33499;-32
2022/09/20 15:15:53;;;;;;;5.50;3.00;;;;;;;;;;107632;1273;33466;-34
2022/09/20 15:18:25;;;;;;;5.10;2.90;;;;;;;;;;107621;1274;32636;-35
2022/09/20 15:20:55;;;;;;;7.30;3.20;;;;;;;;;;107673;1274;34655;-35
2022/09/20 15:23:24;;;;;;;5.20;3.20;;;;;;;;;;107655;1273;33906;-35
2022/09/20 15:25:54;;;;;;;5.20;3.10;;;;;;;;;;107628;1272;33438;-34
2022/09/20 15:28:25;;;;;;;4.70;2.80;;;;;;;;;;107671;1273;33173;-35
2022/09/20 15:30:54;;;;;;;5.60;2.80;;;;;;;;;;107655;1272;33446;-35